Time;durP1;ratioP1;P1;durP2;ratioP2;P2;SDS_P1;SDS_P2;PMS_P1;PMS_P2;Temp;Humidity;BMP_temperature;BMP_pressure;BME280_temperature;BME280_humidity;BME280_pressure;Samples;Min_cycle;Max_cycle;Signal;HPM_P1;HPM_P2
2023/11/02 00:00:45;;;;;;;9.73;6.90;;;;;;;14.96;100.00;100482.41;5009526;28;20034;-72
2023/11/02 00:03:40;;;;;;;9.82;6.60;;;;;;;14.62;100.00;100419.69;4996012;28;20475;-72
2023/11/02 00:06:22;;;;;;;11.55;6.75;;;;;;;14.61;100.00;100407.78;5009488;28;20041;-72
2023/11/02 00:09:00;;;;;;;11.98;7.07;;;;;;;14.64;100.00;100427.28;5009916;28;20040;-71
2023/11/02 00:11:48;;;;;;;10.25;7.05;;;;;;;15.05;100.00;100503.41;5004509;28;20032;-71
2023/11/02 00:14:13;;;;;;;8.18;6.55;;;;;;;14.75;100.00;100443.94;5013776;28;20037;-71
2023/11/02 00:16:38;;;;;;;8.40;6.70;;;;;;;14.58;100.00;100433.47;5018455;28;20044;-71
2023/11/02 00:19:05;;;;;;;8.82;6.40;;;;;;;14.67;100.00;100445.13;5015622;28;20159;-71
2023/11/02 00:21:32;;;;;;;9.55;6.40;;;;;;;14.77;100.00;100482.28;5017741;28;20033;-71
2023/11/02 00:23:58;;;;;;;8.52;6.68;;;;;;;14.67;100.00;100473.25;5016607;28;20120;-72
2023/11/02 00:26:24;;;;;;;8.27;6.57;;;;;;;15.09;100.00;100525.44;5015932;28;20173;-71
2023/11/02 00:28:50;;;;;;;8.65;6.72;;;;;;;14.93;100.00;100533.75;5008692;28;20029;-71
2023/11/02 00:31:16;;;;;;;10.38;7.15;;;;;;;14.89;100.00;100538.16;5021648;28;20083;-71
2023/11/02 00:33:43;;;;;;;7.38;6.53;;;;;;;14.44;100.00;100489.44;5017212;28;20036;-72
2023/11/02 00:36:11;;;;;;;10.43;6.68;;;;;;;15.06;100.00;100556.28;5017302;28;20760;-71
2023/11/02 00:38:36;;;;;;;9.02;6.53;;;;;;;14.86;100.00;100545.09;5009222;28;20094;-71
2023/11/02 00:41:02;;;;;;;9.52;7.15;;;;;;;14.88;100.00;100545.88;5009976;28;20033;-71
2023/11/02 00:43:28;;;;;;;9.98;6.38;;;;;;;14.77;100.00;100551.41;5013717;28;20030;-71
2023/11/02 00:45:54;;;;;;;8.15;6.38;;;;;;;15.02;100.00;100567.53;5021505;28;20026;-72
2023/11/02 00:48:33;;;;;;;8.75;6.88;;;;;;;14.90;100.00;100567.97;5008749;28;20034;-71
2023/11/02 00:51:19;;;;;;;9.20;6.95;;;;;;;15.03;100.00;100574.34;5009627;28;20026;-72
2023/11/02 00:53:46;;;;;;;9.45;6.78;;;;;;;14.53;100.00;100524.09;5022978;28;20041;-71
2023/11/02 00:56:14;;;;;;;8.88;6.40;;;;;;;14.65;100.00;100516.84;5025523;28;20030;-72
2023/11/02 00:58:46;;;;;;;7.88;6.30;;;;;;;14.40;100.00;100510.09;5017167;28;20477;-72
2023/11/02 01:01:13;;;;;;;9.88;6.30;;;;;;;14.93;100.00;100574.72;5024936;28;20047;-72
2023/11/02 01:03:40;;;;;;;10.98;6.53;;;;;;;14.97;100.00;100584.78;5021509;28;20049;-72
2023/11/02 01:06:16;;;;;;;9.60;6.47;;;;;;;14.75;100.00;100589.00;5025570;28;20041;-71
2023/11/02 01:08:41;;;;;;;10.45;6.65;;;;;;;14.55;100.00;100535.13;5008760;28;20037;-72
2023/11/02 01:11:09;;;;;;;8.88;6.18;;;;;;;14.62;100.00;100539.97;5017594;28;20410;-72
2023/11/02 01:13:35;;;;;;;6.88;6.05;;;;;;;14.51;100.00;100549.75;5023678;28;20124;-72
2023/11/02 01:16:09;;;;;;;8.15;6.10;;;;;;;14.89;100.00;100612.41;5007109;28;20465;-71
2023/11/02 01:18:39;;;;;;;9.20;6.30;;;;;;;15.36;100.00;100621.75;5023148;28;20033;-72
2023/11/02 01:21:06;;;;;;;8.52;6.35;;;;;;;14.91;100.00;100592.69;5005226;28;20029;-71
2023/11/02 01:23:33;;;;;;;8.18;6.82;;;;;;;14.68;100.00;100551.69;5019039;28;20112;-71
2023/11/02 01:26:01;;;;;;;9.30;6.65;;;;;;;14.41;100.00;100540.72;5009942;28;20099;-71
2023/11/02 01:28:46;;;;;;;7.82;6.55;;;;;;;14.93;100.00;100619.09;5014570;28;20079;-72
2023/11/02 01:31:15;;;;;;;8.98;6.20;;;;;;;14.97;100.00;100612.97;5020125;28;20038;-71
2023/11/02 01:33:40;;;;;;;8.13;6.57;;;;;;;14.91;100.00;100626.00;5016128;28;20041;-71
2023/11/02 01:36:06;;;;;;;8.23;6.20;;;;;;;14.96;100.00;100618.13;5019480;28;20397;-71
2023/11/02 01:38:33;;;;;;;7.43;6.15;;;;;;;14.41;100.00;100543.28;5016741;28;20053;-71
2023/11/02 01:40:59;;;;;;;7.78;6.53;;;;;;;15.15;100.00;100621.72;5008740;28;20057;-71
2023/11/02 01:43:34;;;;;;;9.75;6.80;;;;;;;15.14;100.00;100604.66;5021110;28;20032;-71
2023/11/02 01:46:04;;;;;;;10.98;6.40;;;;;;;14.83;100.00;100548.63;5019232;28;20501;-73
2023/11/02 01:48:35;;;;;;;8.05;6.10;;;;;;;14.88;100.00;100567.19;5020805;28;20025;-72
2023/11/02 01:51:08;;;;;;;7.13;5.93;;;;;;;15.29;100.00;100611.78;5015863;28;20069;-72
2023/11/02 01:53:40;;;;;;;7.65;6.30;;;;;;;15.22;100.00;100603.50;5009106;28;20026;-72
2023/11/02 01:56:36;;;;;;;9.02;5.95;;;;;;;15.12;100.00;100578.25;5015023;28;20088;-72
2023/11/02 02:02:39;;;;;;;7.57;6.03;;;;;;;15.32;100.00;100575.81;5012473;28;20048;-70
2023/11/02 02:05:18;;;;;;;9.10;6.30;;;;;;;15.15;100.00;100550.81;5019010;28;20112;-69
2023/11/02 02:07:55;;;;;;;8.77;6.32;;;;;;;15.38;100.00;100573.84;5017003;28;20580;-70
2023/11/02 02:10:37;;;;;;;8.73;5.88;;;;;;;15.02;100.00;100500.94;5007198;28;20032;-70
2023/11/02 02:13:10;;;;;;;;;;;;;;;15.53;100.00;100568.16;5022315;28;20075;-70
2023/11/02 02:16:21;;;;;;;9.30;6.43;;;;;;;15.72;100.00;100562.31;5017015;28;20351;-71
2023/11/02 02:18:54;;;;;;;9.05;6.32;;;;;;;15.22;100.00;100503.59;5007747;28;20037;-70
2023/11/02 02:21:32;;;;;;;7.03;6.32;;;;;;;15.35;100.00;100529.56;5013857;28;20036;-70
2023/11/02 02:24:06;;;;;;;7.78;6.28;;;;;;;15.29;100.00;100542.63;5015959;28;20029;-70
2023/11/02 02:26:44;;;;;;;8.35;6.25;;;;;;;15.79;100.00;100591.94;5016121;28;20042;-71
2023/11/02 02:29:41;;;;;;;7.93;6.20;;;;;;;15.82;100.00;100586.69;5021706;28;20036;-71
2023/11/02 02:32:56;;;;;;;9.95;5.65;;;;;;;15.74;100.00;100583.59;4995108;28;20129;-72
2023/11/02 02:35:40;;;;;;;9.38;5.95;;;;;;;15.45;100.00;100571.94;5027475;28;20040;-71
2023/11/02 02:38:17;;;;;;;7.65;6.03;;;;;;;15.28;100.00;100525.56;5021431;28;20489;-71
2023/11/02 02:41:09;;;;;;;10.55;5.32;;;;;;;15.90;100.00;100572.69;5013318;28;20551;-71
2023/11/02 02:43:36;;;;;;;7.47;5.30;;;;;;;15.31;100.00;100494.72;5021308;28;20038;-70
2023/11/02 02:46:06;;;;;;;5.97;5.32;;;;;;;15.44;100.00;100489.09;5011924;28;20536;-71
2023/11/02 02:48:33;;;;;;;7.03;5.60;;;;;;;15.58;100.00;100544.91;5010197;28;20060;-71
2023/11/02 02:51:02;;;;;;;9.02;5.30;;;;;;;15.54;100.00;100492.09;5014652;28;20037;-71
2023/11/02 02:53:31;;;;;;;7.03;5.53;;;;;;;15.29;100.00;100466.56;5010112;28;20102;-72
2023/11/02 02:56:01;;;;;;;7.53;5.72;;;;;;;15.38;100.00;100483.31;5016417;28;20108;-71
2023/11/02 02:58:27;;;;;;;7.10;5.22;;;;;;;15.12;100.00;100440.81;5011364;28;20036;-70
2023/11/02 03:00:53;;;;;;;8.73;5.78;;;;;;;15.14;100.00;100459.50;5010780;28;20120;-71
2023/11/02 03:03:21;;;;;;;8.27;5.90;;;;;;;15.65;100.00;100536.06;5018632;28;20113;-71
2023/11/02 03:05:47;;;;;;;7.70;5.70;;;;;;;15.25;100.00;100459.91;5021613;28;20064;-72
2023/11/02 03:08:15;;;;;;;9.05;6.13;;;;;;;15.20;100.00;100469.50;5019970;28;20050;-72
2023/11/02 03:10:44;;;;;;;8.65;5.82;;;;;;;15.46;100.00;100538.53;5021666;28;20045;-71
2023/11/02 03:13:13;;;;;;;7.88;5.78;;;;;;;15.46;100.00;100556.47;5018156;28;20034;-71
2023/11/02 03:15:41;;;;;;;9.88;6.30;;;;;;;15.53;100.00;100577.56;5010707;28;20037;-72
2023/11/02 03:18:12;;;;;;;7.95;5.90;;;;;;;15.53;100.00;100582.69;5022404;28;20034;-72
2023/11/02 03:20:39;;;;;;;11.25;6.72;;;;;;;15.52;100.00;100574.19;5019220;28;20058;-73
2023/11/02 03:23:14;;;;;;;10.80;6.38;;;;;;;15.53;100.00;100596.34;5016079;28;20040;-72
2023/11/02 03:26:12;;;;;;;14.88;5.82;;;;;;;15.19;100.00;100630.94;5003456;28;20120;-72
2023/11/02 03:28:53;;;;;;;10.48;6.00;;;;;;;14.97;100.00;100707.72;4994577;28;20048;-72
2023/11/02 03:31:41;;;;;;;10.38;5.63;;;;;;;14.97;100.00;100788.81;5019910;28;20034;-71
2023/11/02 03:34:44;;;;;;;9.05;5.85;;;;;;;14.54;100.00;100808.09;5021969;28;20034;-72
2023/11/02 03:37:44;;;;;;;8.75;5.70;;;;;;;14.85;100.00;101196.31;5016550;28;20034;-72
2023/11/02 03:40:27;;;;;;;8.90;5.63;;;;;;;14.84;100.00;101366.19;5018201;28;20033;-71
2023/11/02 03:43:04;;;;;;;9.23;5.82;;;;;;;14.49;100.00;101484.72;5020442;28;20133;-71
2023/11/02 03:45:35;;;;;;;9.15;5.57;;;;;;;14.83;100.00;101715.34;5019508;28;20026;-72
2023/11/02 03:48:13;;;;;;;8.10;5.63;;;;;;;14.94;100.00;101842.34;5012202;28;20057;-71
2023/11/02 03:50:56;;;;;;;10.98;5.53;;;;;;;14.84;100.00;101934.72;5010885;28;20515;-72
2023/11/02 03:53:48;;;;;;;10.95;5.30;;;;;;;14.94;100.00;102059.22;5008305;28;20412;-72
2023/11/02 03:56:46;;;;;;;8.15;5.45;;;;;;;14.71;100.00;102111.59;4974238;28;20045;-73
2023/11/02 03:59:20;;;;;;;10.25;5.68;;;;;;;14.29;100.00;102129.06;5006460;28;20041;-72
2023/11/02 04:02:03;;;;;;;5.72;5.00;;;;;;;14.53;100.00;102255.13;5008038;28;20033;-71
2023/11/02 04:04:46;;;;;;;6.95;5.45;;;;;;;14.38;100.00;102206.59;5021378;28;20033;-71
2023/11/02 04:07:31;;;;;;;9.70;5.15;;;;;;;14.96;100.00;102360.66;5008010;28;20025;-71
2023/11/02 04:10:08;;;;;;;10.68;6.55;;;;;;;14.83;100.00;102387.22;5018185;28;20026;-71
2023/11/02 04:12:52;;;;;;;8.50;5.53;;;;;;;14.84;100.00;102463.19;5008867;28;20048;-71
2023/11/02 04:15:18;;;;;;;11.75;6.38;;;;;;;14.76;100.00;102605.81;5008685;28;20034;-71
2023/11/02 04:17:43;;;;;;;9.07;5.95;;;;;;;14.75;100.00;103395.66;5009338;28;20124;-72
2023/11/02 04:20:09;;;;;;;7.53;5.60;;;;;;;14.39;100.00;103408.03;5006167;28;20113;-71
2023/11/02 04:22:35;;;;;;;7.85;5.57;;;;;;;14.70;100.00;103510.88;5009391;28;20428;-71
2023/11/02 04:25:00;;;;;;;6.00;5.35;;;;;;;14.42;100.00;103477.22;5008992;28;20032;-71
2023/11/02 04:27:26;;;;;;;5.80;4.95;;;;;;;14.54;100.00;103502.97;5007777;28;20390;-73
2023/11/02 04:29:51;;;;;;;8.55;5.30;;;;;;;14.34;100.00;103453.22;5009790;28;20455;-72
2023/11/02 04:32:17;;;;;;;7.38;5.25;;;;;;;15.00;100.00;103529.97;5007010;28;20029;-70
2023/11/02 04:34:43;;;;;;;8.18;5.10;;;;;;;14.81;100.00;103500.75;5009005;28;20044;-71
2023/11/02 04:37:16;;;;;;;7.80;5.15;;;;;;;14.86;100.00;103496.53;5001088;28;20129;-72
2023/11/02 04:39:45;;;;;;;7.07;4.97;;;;;;;14.34;100.00;103407.97;5005729;28;20500;-71
2023/11/02 04:42:11;;;;;;;6.85;5.32;;;;;;;14.80;100.00;103506.69;5005056;28;20029;-72
2023/11/02 04:44:37;;;;;;;5.75;5.15;;;;;;;14.78;100.00;103529.75;5007074;28;20104;-70
2023/11/02 04:47:03;;;;;;;6.07;4.93;;;;;;;14.10;100.00;103437.50;5008582;28;20061;-70
2023/11/02 04:49:29;;;;;;;7.07;4.72;;;;;;;14.42;100.00;103500.28;5006412;28;20291;-70
2023/11/02 04:51:55;;;;;;;6.28;5.10;;;;;;;14.63;100.00;103534.69;5005318;28;20495;-69
2023/11/02 04:54:28;;;;;;;7.88;5.13;;;;;;;14.44;100.00;103316.78;5007954;28;20033;-70
2023/11/02 04:56:54;;;;;;;8.52;4.85;;;;;;;14.50;100.00;103286.97;5007716;28;20034;-69
2023/11/02 04:59:19;;;;;;;7.40;4.65;;;;;;;14.80;100.00;103319.66;5008080;28;20045;-69
2023/11/02 05:01:45;;;;;;;6.60;4.60;;;;;;;14.63;100.00;103277.69;5005519;28;20416;-71
2023/11/02 05:04:11;;;;;;;5.90;4.22;;;;;;;14.88;100.00;103348.78;5006868;28;20029;-73
2023/11/02 05:06:38;;;;;;;8.35;4.15;;;;;;;14.93;100.00;103325.75;5008188;28;20030;-69
2023/11/02 05:09:04;;;;;;;5.72;3.85;;;;;;;14.79;100.00;103225.75;5007563;28;20537;-69
2023/11/02 05:11:30;;;;;;;4.82;4.00;;;;;;;14.91;100.00;103182.25;5006135;28;20033;-71
2023/11/02 05:13:55;;;;;;;6.05;3.47;;;;;;;14.79;100.00;103113.03;5006614;28;20046;-72
2023/11/02 05:16:20;;;;;;;6.03;3.60;;;;;;;14.84;100.00;103072.91;5006294;28;20116;-71
2023/11/02 05:18:46;;;;;;;5.45;3.85;;;;;;;14.79;100.00;103033.59;5007857;28;20026;-72
2023/11/02 05:21:11;;;;;;;6.20;3.50;;;;;;;14.53;100.00;102974.59;5007698;28;20417;-73
2023/11/02 05:23:37;;;;;;;6.10;3.22;;;;;;;14.53;100.00;102960.94;5007076;28;20440;-72
2023/11/02 05:26:03;;;;;;;6.50;3.58;;;;;;;14.92;100.00;103032.78;5007783;28;20032;-74
2023/11/02 05:28:29;;;;;;;6.10;3.60;;;;;;;14.95;100.00;102996.06;5006488;28;20033;-73
2023/11/02 05:30:55;;;;;;;6.25;3.80;;;;;;;14.90;100.00;102959.31;5007489;28;20034;-73
2023/11/02 05:33:21;;;;;;;4.43;3.42;;;;;;;14.86;100.00;102945.66;5006607;28;20029;-72
2023/11/02 05:35:47;;;;;;;6.43;3.55;;;;;;;14.89;100.00;102932.88;5006214;28;20123;-72
2023/11/02 05:38:12;;;;;;;5.47;3.45;;;;;;;15.05;100.00;102915.81;5006332;28;20783;-72
2023/11/02 05:40:38;;;;;;;6.15;3.60;;;;;;;14.97;100.00;102862.00;5007286;28;22067;-70
2023/11/02 05:43:03;;;;;;;4.03;3.45;;;;;;;15.16;100.00;102816.69;5006284;28;20487;-72
2023/11/02 05:45:29;;;;;;;4.82;3.25;;;;;;;15.05;100.00;102751.78;5004029;28;20037;-72
2023/11/02 05:47:54;;;;;;;4.75;3.30;;;;;;;15.10;100.00;102701.38;5005274;28;20068;-72
2023/11/02 05:50:20;;;;;;;4.35;3.25;;;;;;;15.21;100.00;102691.97;5005882;28;20044;-71
2023/11/02 05:52:45;;;;;;;4.13;2.97;;;;;;;14.70;100.00;102390.72;5005953;28;20037;-71
2023/11/02 05:55:11;;;;;;;6.45;3.50;;;;;;;15.17;100.00;102449.34;5007355;28;20029;-71
2023/11/02 05:57:36;;;;;;;3.90;3.10;;;;;;;15.23;100.00;102332.22;5006131;28;20435;-71
2023/11/02 06:00:07;;;;;;;5.43;3.10;;;;;;;15.11;100.00;102012.06;5005586;28;20195;-71
2023/11/02 06:02:33;;;;;;;5.28;3.20;;;;;;;15.11;100.00;101976.19;5005182;28;20033;-69
2023/11/02 06:04:58;;;;;;;6.38;3.45;;;;;;;15.30;100.00;101954.53;5004603;28;20092;-72
2023/11/02 06:07:24;;;;;;;6.68;4.13;;;;;;;15.31;100.00;101928.00;5005888;28;20034;-70
2023/11/02 06:09:49;;;;;;;6.60;4.10;;;;;;;15.36;100.00;101892.06;5006244;28;20026;-72
2023/11/02 06:12:14;;;;;;;6.47;4.00;;;;;;;15.42;100.00;101881.75;5001471;28;20385;-71
2023/11/02 06:14:40;;;;;;;4.75;3.30;;;;;;;15.55;100.00;101875.50;5012966;28;20053;-71
2023/11/02 06:17:05;;;;;;;5.53;3.35;;;;;;;15.64;100.00;101834.34;5014877;28;20428;-70
2023/11/02 06:19:31;;;;;;;5.78;3.05;;;;;;;15.27;100.00;101743.59;5007805;28;20026;-72
2023/11/02 06:21:57;;;;;;;6.15;3.17;;;;;;;15.25;100.00;101723.09;5014611;28;20037;-70
2023/11/02 06:24:23;;;;;;;4.50;3.33;;;;;;;15.58;100.00;101776.31;5015827;28;20390;-69
2023/11/02 06:26:48;;;;;;;5.15;2.60;;;;;;;15.23;100.00;101706.06;5016898;28;20042;-71
2023/11/02 06:29:13;;;;;;;5.45;2.83;;;;;;;15.63;100.00;101742.06;4999851;28;20042;-73
2023/11/02 06:31:39;;;;;;;3.40;2.85;;;;;;;15.65;100.00;101727.47;5016451;28;20037;-73
2023/11/02 06:34:04;;;;;;;6.25;2.60;;;;;;;15.69;100.00;101740.19;5000831;28;20038;-70
2023/11/02 06:36:30;;;;;;;5.00;2.80;;;;;;;15.58;100.00;101704.53;5014672;28;20377;-69
2023/11/02 06:38:56;;;;;;;4.40;2.63;;;;;;;15.40;100.00;101652.75;5016470;28;20036;-70
2023/11/02 06:41:22;;;;;;;4.90;2.90;;;;;;;15.35;100.00;101641.75;5017487;28;20030;-69
2023/11/02 06:43:49;;;;;;;5.28;2.80;;;;;;;15.67;100.00;101697.53;5021041;28;20045;-69
2023/11/02 06:46:14;;;;;;;7.25;2.80;;;;;;;15.45;100.00;101636.41;5015104;28;20099;-69
2023/11/02 06:48:40;;;;;;;7.13;2.65;;;;;;;15.47;100.00;101626.97;5000053;28;20034;-72
2023/11/02 06:51:07;;;;;;;6.35;2.60;;;;;;;15.21;100.00;101559.19;5011464;28;20512;-72
2023/11/02 06:53:33;;;;;;;5.35;3.00;;;;;;;15.87;100.00;101652.59;5013464;28;20208;-69
2023/11/02 06:55:59;;;;;;;5.50;2.88;;;;;;;15.28;100.00;101520.59;5015528;28;20030;-71
2023/11/02 06:58:24;;;;;;;4.85;2.95;;;;;;;15.54;100.00;101556.75;5000818;28;20041;-71
2023/11/02 07:00:49;;;;;;;7.68;2.90;;;;;;;15.83;100.00;101596.25;5019180;28;20030;-70
2023/11/02 07:03:15;;;;;;;5.38;2.90;;;;;;;15.96;100.00;101611.34;5006309;28;20022;-69
2023/11/02 07:05:41;;;;;;;4.40;3.08;;;;;;;15.96;100.00;101620.75;5006372;28;20040;-72
2023/11/02 07:08:07;;;;;;;5.13;2.58;;;;;;;15.87;100.00;101626.94;5005950;28;20043;-68
2023/11/02 07:10:32;;;;;;;4.95;2.72;;;;;;;15.83;100.00;101620.19;5013960;28;20033;-72
2023/11/02 07:12:58;;;;;;;5.65;2.70;;;;;;;15.96;100.00;101649.81;5011630;28;20053;-71
2023/11/02 07:15:24;;;;;;;4.43;2.40;;;;;;;15.78;100.00;101634.00;5005359;28;20029;-71
2023/11/02 07:17:50;;;;;;;4.35;2.35;;;;;;;15.97;100.00;101695.13;5010694;28;20038;-70
2023/11/02 07:20:15;;;;;;;7.03;2.55;;;;;;;15.70;100.00;101651.28;5014242;28;20034;-71
2023/11/02 07:22:41;;;;;;;4.75;2.60;;;;;;;15.59;100.00;101656.63;5015933;28;20029;-70
2023/11/02 07:25:07;;;;;;;6.95;2.63;;;;;;;15.29;100.00;101637.59;5018013;28;20119;-69
2023/11/02 07:27:33;;;;;;;4.18;2.45;;;;;;;15.91;100.00;101769.66;5018664;28;20501;-70
2023/11/02 07:29:59;;;;;;;7.50;2.65;;;;;;;15.61;100.00;101716.41;5010659;28;20044;-70
2023/11/02 07:32:27;;;;;;;3.85;2.75;;;;;;;15.95;100.00;101791.81;5020682;28;20038;-72
2023/11/02 07:34:53;;;;;;;4.47;2.20;;;;;;;15.73;100.00;101764.06;5020064;28;20064;-72
2023/11/02 07:37:18;;;;;;;5.13;2.38;;;;;;;16.02;100.00;101838.72;5013542;28;20033;-70
2023/11/02 07:39:45;;;;;;;3.97;2.40;;;;;;;15.62;100.00;101802.75;5014861;28;20033;-71
2023/11/02 07:42:10;;;;;;;3.25;2.30;;;;;;;15.96;100.00;101882.44;5018312;28;20043;-70
2023/11/02 07:44:36;;;;;;;4.75;2.72;;;;;;;15.48;100.00;101804.72;5021688;28;20116;-70
2023/11/02 07:47:01;;;;;;;4.32;2.80;;;;;;;15.96;100.00;101908.97;5014634;28;20061;-71
2023/11/02 07:49:27;;;;;;;3.67;2.42;;;;;;;15.74;100.00;101878.59;5013766;28;20053;-72
2023/11/02 07:51:52;;;;;;;4.18;2.42;;;;;;;16.33;100.00;101952.72;5020603;28;20172;-72
2023/11/02 07:54:18;;;;;;;7.60;2.35;;;;;;;16.26;100.00;101935.75;5012555;28;20030;-72
2023/11/02 07:56:44;;;;;;;3.53;2.40;;;;;;;15.93;100.00;101892.75;5009972;28;20030;-73
2023/11/02 07:59:11;;;;;;;6.32;2.40;;;;;;;16.06;100.00;101925.88;5018345;28;20092;-72
2023/11/02 08:01:37;;;;;;;4.82;2.40;;;;;;;16.35;100.00;101948.41;5010056;28;20119;-75
2023/11/02 08:04:02;;;;;;;5.88;2.58;;;;;;;16.41;100.00;101944.00;5005083;28;20045;-72
2023/11/02 08:06:28;;;;;;;3.97;2.40;;;;;;;16.62;100.00;101935.00;5010252;28;20523;-73
2023/11/02 08:08:53;;;;;;;5.72;2.72;;;;;;;16.96;100.00;101961.66;5019493;28;20033;-73
2023/11/02 08:11:18;;;;;;;4.80;2.60;;;;;;;16.97;100.00;101898.28;5009938;28;20041;-73
2023/11/02 08:13:44;;;;;;;4.85;2.70;;;;;;;17.80;100.00;101937.38;5017517;28;20440;-72
2023/11/02 08:16:09;;;;;;;4.57;2.25;;;;;;;18.00;100.00;101845.84;5021641;28;20021;-72
2023/11/02 08:18:35;;;;;;;2.80;2.17;;;;;;;17.56;100.00;101757.91;5016860;28;20054;-72
2023/11/02 08:21:07;;;;;;;6.38;2.42;;;;;;;17.28;100.00;101671.22;5011586;28;20048;-73
2023/11/02 08:23:33;;;;;;;7.30;2.38;;;;;;;17.14;100.00;101654.50;5020265;28;20041;-71
2023/11/02 08:25:59;;;;;;;4.03;2.60;;;;;;;16.98;100.00;101638.66;5010082;28;20035;-71
2023/11/02 08:28:24;;;;;;;4.32;2.90;;;;;;;17.17;100.00;101686.09;5011626;28;20114;-72
2023/11/02 08:30:50;;;;;;;6.32;2.72;;;;;;;17.77;100.00;101739.28;5008408;28;20485;-72
2023/11/02 08:33:15;;;;;;;3.67;2.60;;;;;;;17.83;100.00;101716.78;5014382;28;20417;-72
2023/11/02 08:35:41;;;;;;;6.28;2.55;;;;;;;17.92;100.00;101671.94;5019421;28;20042;-72
2023/11/02 08:38:06;;;;;;;3.83;2.70;;;;;;;18.00;100.00;101665.66;5008739;28;20034;-73
2023/11/02 08:40:32;;;;;;;4.00;2.40;;;;;;;17.84;100.00;101643.88;5020239;28;20492;-72
2023/11/02 08:42:57;;;;;;;4.90;2.53;;;;;;;17.24;100.00;101589.06;5018840;28;20045;-73
2023/11/02 08:45:23;;;;;;;5.22;2.80;;;;;;;17.82;100.00;101655.09;5017732;28;20045;-71
2023/11/02 08:47:48;;;;;;;5.43;2.72;;;;;;;17.64;100.00;101666.78;5014974;28;20022;-72
2023/11/02 08:50:13;;;;;;;4.63;2.85;;;;;;;17.57;100.00;101682.44;5017015;28;20053;-72
2023/11/02 08:52:40;;;;;;;5.32;2.90;;;;;;;17.37;100.00;101700.16;5018053;28;20032;-72
2023/11/02 08:55:06;;;;;;;5.93;3.00;;;;;;;17.15;100.00;101695.56;5017144;28;20030;-72
2023/11/02 08:57:32;;;;;;;6.15;2.95;;;;;;;17.36;100.00;101753.28;5022537;28;20506;-71
2023/11/02 08:59:58;;;;;;;5.82;2.90;;;;;;;17.55;100.00;101810.25;5018441;28;20097;-72
2023/11/02 09:02:25;;;;;;;4.63;3.00;;;;;;;17.85;100.00;101820.53;5007272;28;20063;-72
2023/11/02 09:04:51;;;;;;;5.93;2.90;;;;;;;17.24;100.00;101730.47;5013146;28;20033;-71
2023/11/02 09:07:16;;;;;;;4.40;3.03;;;;;;;18.01;100.00;101851.81;5009123;28;20029;-73
2023/11/02 09:09:41;;;;;;;5.53;3.30;;;;;;;18.26;100.00;101863.13;5008385;28;20116;-73
2023/11/02 09:12:07;;;;;;;5.00;3.40;;;;;;;18.13;100.00;101815.44;5008168;28;20033;-73
2023/11/02 09:14:32;;;;;;;8.55;3.40;;;;;;;17.73;100.00;101741.09;5009612;28;20057;-72
2023/11/02 09:16:58;;;;;;;5.40;3.53;;;;;;;18.10;100.00;101805.25;5014137;28;20061;-72
2023/11/02 09:19:23;;;;;;;5.93;3.40;;;;;;;18.01;100.00;101785.75;5009668;28;20218;-73
2023/11/02 09:21:49;;;;;;;5.93;3.25;;;;;;;17.79;100.00;101763.25;5016765;28;20104;-72
2023/11/02 09:24:14;;;;;;;7.40;3.97;;;;;;;17.66;100.00;101752.47;5017137;28;20029;-70
2023/11/02 09:26:41;;;;;;;4.85;3.35;;;;;;;18.23;100.00;101827.16;5019172;28;20041;-71
2023/11/02 09:29:07;;;;;;;5.78;4.03;;;;;;;17.94;100.00;101824.59;5019599;28;20034;-71
2023/11/02 09:31:32;;;;;;;6.60;3.60;;;;;;;18.05;100.00;101828.53;5014109;28;20101;-71
2023/11/02 09:34:01;;;;;;;6.47;3.67;;;;;;;17.11;100.00;101709.41;5017047;28;20113;-72
2023/11/02 09:36:27;;;;;;;8.85;3.90;;;;;;;17.45;100.00;101824.22;5007055;28;20107;-72
2023/11/02 09:38:53;;;;;;;5.20;3.55;;;;;;;16.97;100.00;101760.34;5012797;28;20030;-73
2023/11/02 09:41:19;;;;;;;7.95;4.22;;;;;;;17.48;100.00;101891.00;5018812;28;20029;-73
2023/11/02 09:43:45;;;;;;;5.65;3.58;;;;;;;17.51;100.00;101932.13;5008987;28;20068;-71
2023/11/02 09:46:12;;;;;;;5.35;3.70;;;;;;;17.19;100.00;101928.56;5019820;28;20104;-71
2023/11/02 09:48:38;;;;;;;6.88;3.88;;;;;;;17.48;100.00;102027.31;5020804;28;20083;-72
2023/11/02 09:51:06;;;;;;;6.03;3.72;;;;;;;17.41;100.00;102090.91;5017512;28;20038;-72
2023/11/02 09:53:31;;;;;;;7.50;3.60;;;;;;;17.38;100.00;102547.97;5017128;28;20026;-72
2023/11/02 09:55:57;;;;;;;6.60;4.03;;;;;;;17.15;100.00;102572.28;5019562;28;20037;-70
2023/11/02 09:58:24;;;;;;;8.35;4.38;;;;;;;17.48;100.00;102977.47;5016784;28;20041;-73
2023/11/02 10:00:50;;;;;;;7.80;4.10;;;;;;;17.44;100.00;103031.53;5016934;28;20034;-73
2023/11/02 10:03:17;;;;;;;6.15;3.47;;;;;;;17.11;100.00;103051.44;5015495;28;20057;-72
2023/11/02 10:05:44;;;;;;;5.35;3.90;;;;;;;17.57;100.00;103169.56;5018742;28;20109;-73
2023/11/02 10:08:10;;;;;;;8.20;4.20;;;;;;;17.09;100.00;103163.72;5013588;28;20034;-72
2023/11/02 10:10:35;;;;;;;6.35;4.10;;;;;;;17.00;100.00;103199.78;5015272;28;20221;-74
2023/11/02 10:13:01;;;;;;;8.40;3.90;;;;;;;17.40;100.00;103305.13;5017044;28;20029;-71
2023/11/02 10:15:29;;;;;;;6.55;4.20;;;;;;;16.96;100.00;103154.38;5019447;28;20033;-75
2023/11/02 10:17:55;;;;;;;5.40;4.00;;;;;;;17.16;100.00;103195.44;5017766;28;20041;-74
2023/11/02 10:20:21;;;;;;;4.60;3.83;;;;;;;16.88;100.00;103174.09;5021355;28;20037;-73
2023/11/02 10:23:00;;;;;;;8.18;6.15;;;;;;;17.37;100.00;103280.28;5018319;28;21184;-73
2023/11/02 10:25:27;;;;;;;9.18;7.20;;;;;;;17.40;100.00;103300.84;5016853;28;20030;-73
2023/11/02 10:27:53;;;;;;;8.18;7.03;;;;;;;17.70;100.00;103317.94;5017852;28;20045;-72
2023/11/02 10:30:19;;;;;;;10.70;7.80;;;;;;;17.83;100.00;103305.00;5017449;28;20041;-72
2023/11/02 10:32:47;;;;;;;9.13;8.20;;;;;;;18.03;100.00;103292.00;5014567;28;20076;-72
2023/11/02 10:35:13;;;;;;;10.32;6.63;;;;;;;17.92;100.00;103248.31;5006951;28;20021;-71
2023/11/02 10:37:38;;;;;;;7.00;5.88;;;;;;;18.08;100.00;103211.28;5017609;28;20045;-71
2023/11/02 10:40:05;;;;;;;8.07;4.75;;;;;;;17.90;100.00;103100.69;5018344;28;20694;-70
2023/11/02 10:42:30;;;;;;;7.55;4.78;;;;;;;18.39;100.00;103119.16;5016051;28;20104;-71
2023/11/02 10:44:56;;;;;;;7.13;4.57;;;;;;;18.62;100.00;103016.69;5015450;28;20184;-71
2023/11/02 10:47:30;;;;;;;5.53;4.05;;;;;;;18.30;100.00;102820.38;5014753;28;20041;-70
2023/11/02 10:49:57;;;;;;;5.55;4.05;;;;;;;18.72;100.00;102536.19;5011917;28;20026;-71
2023/11/02 10:52:37;;;;;;;5.28;3.65;;;;;;;19.30;100.00;102249.38;5016292;28;20443;-76
2023/11/02 10:55:12;;;;;;;5.55;3.65;;;;;;;18.66;100.00;102084.44;5013139;28;20168;-71
2023/11/02 10:57:39;;;;;;;4.55;3.08;;;;;;;18.89;100.00;102085.50;5023276;28;20543;-71
2023/11/02 11:00:05;;;;;;;4.53;3.35;;;;;;;18.66;100.00;102046.59;5008482;28;20480;-71
2023/11/02 11:02:34;;;;;;;4.38;3.35;;;;;;;18.16;100.00;101965.53;5010380;28;20064;-72
2023/11/02 11:05:00;;;;;;;6.10;3.80;;;;;;;18.58;100.00;102045.16;5009654;28;20095;-71
2023/11/02 11:07:29;;;;;;;6.22;4.13;;;;;;;18.68;100.00;102019.06;5020590;28;20084;-71
2023/11/02 11:09:55;;;;;;;7.38;4.50;;;;;;;18.50;100.00;102011.84;5013498;28;20087;-71
2023/11/02 11:12:23;;;;;;;6.13;3.80;;;;;;;18.19;100.00;102005.81;5020550;28;20036;-71
2023/11/02 11:14:49;;;;;;;5.53;3.58;;;;;;;18.35;100.00;102032.84;5020862;28;20444;-70
2023/11/02 11:17:14;;;;;;;7.07;4.30;;;;;;;18.14;100.00;102041.16;5022505;28;20243;-71
2023/11/02 11:19:40;;;;;;;7.15;4.80;;;;;;;18.01;100.00;102039.75;5009160;28;20041;-71
2023/11/02 11:22:25;;;;;;;4.82;3.95;;;;;;;18.23;100.00;102109.56;5018868;28;20405;-70
2023/11/02 11:24:55;;;;;;;8.30;4.70;;;;;;;18.26;100.00;102097.50;5005249;28;20034;-71
2023/11/02 11:27:32;;;;;;;7.85;4.25;;;;;;;18.53;100.00;102114.84;5016084;28;20029;-71
2023/11/02 11:29:59;;;;;;;8.07;3.80;;;;;;;18.62;100.00;102109.44;5007863;28;20033;-71